createdAt,value
2022-11-01T00:00:04.635Z,8.25
2022-11-01T00:02:06.974Z,9.75
2022-11-01T00:04:09.432Z,9.45
2022-11-01T00:06:11.982Z,8.40
2022-11-01T00:08:14.309Z,8.27
2022-11-01T00:12:19.948Z,8.47
2022-11-01T00:14:22.489Z,8.98
2022-11-01T00:16:27.389Z,8.63
2022-11-01T00:18:29.707Z,9.55
2022-11-01T00:20:32.759Z,8.73
2022-11-01T00:22:34.981Z,8.38
2022-11-01T00:24:37.291Z,8.38
2022-11-01T00:26:39.876Z,7.57
2022-11-01T00:28:42.180Z,8.80
2022-11-01T00:30:44.701Z,8.15
2022-11-01T00:32:49.609Z,8.50
2022-11-01T00:34:51.818Z,7.72
2022-11-01T00:36:57.196Z,8.43
2022-11-01T00:38:59.488Z,8.60
2022-11-01T00:41:03.980Z,8.40
2022-11-01T00:43:06.236Z,8.57
2022-11-01T00:45:09.138Z,8.07
2022-11-01T00:47:11.442Z,7.82
2022-11-01T00:49:16.330Z,8.27
2022-11-01T00:51:18.627Z,9.13
2022-11-01T00:53:21.270Z,8.85
2022-11-01T00:55:23.527Z,7.82
2022-11-01T00:57:25.720Z,8.00
2022-11-01T00:59:27.987Z,8.13
2022-11-01T01:01:32.448Z,7.80
2022-11-01T01:03:34.978Z,7.88
2022-11-01T01:05:40.033Z,8.32
2022-11-01T01:07:42.347Z,8.05
2022-11-01T01:09:44.798Z,7.15
2022-11-01T01:11:47.000Z,8.23
2022-11-01T01:13:49.200Z,7.55
2022-11-01T01:15:51.442Z,7.80
2022-11-01T01:17:53.736Z,7.00
2022-11-01T01:19:55.939Z,6.60
2022-11-01T01:22:01.545Z,7.25
2022-11-01T01:24:03.977Z,7.20
2022-11-01T01:26:10.600Z,7.68
2022-11-01T01:28:12.868Z,6.70
2022-11-01T01:30:15.158Z,7.03
2022-11-01T01:32:21.130Z,7.78
2022-11-01T01:34:23.434Z,7.18
2022-11-01T01:36:25.668Z,7.65
2022-11-01T01:38:30.542Z,7.72
2022-11-01T01:40:33.243Z,7.68
2022-11-01T01:42:37.251Z,7.35
2022-11-01T01:45:15.170Z,7.18
2022-11-01T01:47:22.098Z,7.13
2022-11-01T01:49:24.351Z,7.53
2022-11-01T01:51:29.073Z,6.88
2022-11-01T01:53:37.095Z,7.57
2022-11-01T01:55:42.956Z,7.05
2022-11-01T01:57:45.489Z,7.47
2022-11-01T01:59:48.296Z,6.95
2022-11-01T02:01:50.875Z,6.80
2022-11-01T02:03:53.413Z,6.70
2022-11-01T02:05:59.555Z,7.05
2022-11-01T02:08:03.086Z,6.78
2022-11-01T02:10:09.582Z,7.18
2022-11-01T02:12:13.264Z,6.78
2022-11-01T02:14:16.748Z,6.80
2022-11-01T02:16:30.164Z,6.65
2022-11-01T02:18:36.730Z,6.22
2022-11-01T02:20:54.002Z,6.95
2022-11-01T02:23:24.845Z,6.55
2022-11-01T02:25:44.134Z,6.50
2022-11-01T02:28:01.143Z,6.95
2022-11-01T02:30:12.593Z,6.20
2022-11-01T02:32:24.387Z,6.25
2022-11-01T02:34:31.189Z,8.00
2022-11-01T02:36:39.813Z,7.55
2022-11-01T02:38:48.676Z,6.65
2022-11-01T02:40:56.008Z,6.80
2022-11-01T02:43:03.830Z,5.88
2022-11-01T02:45:11.068Z,6.22
2022-11-01T02:47:14.523Z,5.70
2022-11-01T02:49:21.985Z,6.90
2022-11-01T02:51:26.418Z,5.97
2022-11-01T02:53:28.666Z,6.13
2022-11-01T02:55:31.146Z,6.55
2022-11-01T02:57:36.601Z,5.85
2022-11-01T02:59:45.866Z,6.10
2022-11-01T03:01:55.889Z,6.13
2022-11-01T03:04:02.103Z,5.85
2022-11-01T03:06:19.110Z,5.03
2022-11-01T03:08:25.460Z,5.70
2022-11-01T03:10:37.953Z,6.10
2022-11-01T03:12:51.193Z,6.10
2022-11-01T03:14:57.966Z,5.97
2022-11-01T03:17:03.214Z,5.88
2022-11-01T03:19:14.355Z,5.00
2022-11-01T03:21:23.737Z,5.28
2022-11-01T03:23:30.582Z,5.60
2022-11-01T03:25:44.404Z,5.05
2022-11-01T03:27:47.692Z,5.20
2022-11-01T03:29:58.614Z,5.00
2022-11-01T03:32:03.073Z,5.00
2022-11-01T03:34:08.739Z,5.95
2022-11-01T03:36:14.914Z,5.15
2022-11-01T03:38:24.165Z,5.40
2022-11-01T03:40:28.991Z,5.90
2022-11-01T03:42:32.622Z,5.05
2022-11-01T03:44:39.730Z,5.55
2022-11-01T03:46:42.606Z,4.85
2022-11-01T03:48:44.844Z,4.60
2022-11-01T03:50:48.411Z,5.20
2022-11-01T03:52:50.889Z,5.65
2022-11-01T03:54:56.384Z,5.90
2022-11-01T03:56:58.853Z,5.03
2022-11-01T03:59:03.320Z,4.72
2022-11-01T04:01:05.864Z,5.10
2022-11-01T04:03:09.458Z,5.10
2022-11-01T04:05:12.427Z,4.90
2022-11-01T04:07:14.625Z,4.68
2022-11-01T04:09:16.901Z,4.63
2022-11-01T04:11:21.780Z,5.07
2022-11-01T04:13:24.758Z,4.75
2022-11-01T04:15:45.947Z,5.32
2022-11-01T04:18:06.512Z,4.70
2022-11-01T04:20:28.221Z,4.85
2022-11-01T04:22:30.396Z,4.22
2022-11-01T04:24:35.361Z,5.00
2022-11-01T04:28:44.856Z,4.70
2022-11-01T04:30:47.108Z,5.43
2022-11-01T04:32:49.301Z,4.80
2022-11-01T04:34:51.524Z,4.95
2022-11-01T04:36:53.703Z,4.45
2022-11-01T04:38:57.496Z,4.75
2022-11-01T04:40:59.728Z,5.32
2022-11-01T04:43:04.577Z,5.10
2022-11-01T04:45:08.892Z,5.00
2022-11-01T04:47:11.117Z,4.70
2022-11-01T04:49:15.058Z,4.28
2022-11-01T04:51:17.529Z,4.50
2022-11-01T04:53:22.675Z,4.55
2022-11-01T04:55:25.011Z,4.78
2022-11-01T04:57:27.201Z,4.45
2022-11-01T04:59:32.122Z,4.03
2022-11-01T05:01:34.658Z,4.68
2022-11-01T05:03:36.952Z,4.55
2022-11-01T05:05:39.375Z,4.45
2022-11-01T05:07:41.714Z,4.35
2022-11-01T05:09:51.413Z,4.88
2022-11-01T05:11:53.711Z,4.72
2022-11-01T05:13:57.787Z,3.85
2022-11-01T05:16:18.965Z,4.05
2022-11-01T05:18:22.114Z,4.32
2022-11-01T05:20:24.395Z,4.32
2022-11-01T05:22:26.664Z,4.43
2022-11-01T05:24:31.869Z,4.45
2022-11-01T05:26:34.964Z,4.07
2022-11-01T05:28:37.678Z,4.47
2022-11-01T05:30:40.824Z,3.78
2022-11-01T05:32:45.686Z,4.53
2022-11-01T05:34:49.885Z,3.72
2022-11-01T05:38:56.797Z,3.90
2022-11-01T05:41:02.196Z,4.45
2022-11-01T05:43:04.834Z,4.85
2022-11-01T05:45:10.076Z,3.85
2022-11-01T05:47:17.095Z,3.42
2022-11-01T05:49:22.761Z,3.67
2022-11-01T05:51:25.348Z,3.28
2022-11-01T05:53:27.579Z,2.90
2022-11-01T05:55:29.749Z,3.33
2022-11-01T05:57:33.562Z,2.88
2022-11-01T05:59:36.032Z,2.50
2022-11-01T06:01:38.557Z,2.40
2022-11-01T06:03:41.016Z,2.30
2022-11-01T06:05:46.110Z,2.72
2022-11-01T06:07:50.626Z,2.10
2022-11-01T06:09:52.951Z,2.20
2022-11-01T06:11:55.213Z,2.10
2022-11-01T06:13:58.851Z,1.63
2022-11-01T06:16:01.661Z,1.80
2022-11-01T06:18:05.028Z,2.13
2022-11-01T06:20:08.500Z,1.70
2022-11-01T06:22:13.373Z,1.92
2022-11-01T06:24:15.898Z,2.20
2022-11-01T06:26:19.890Z,1.67
2022-11-01T06:28:22.840Z,2.45
2022-11-01T06:30:25.101Z,1.70
2022-11-01T06:32:27.384Z,1.85
2022-11-01T06:34:29.749Z,1.80
2022-11-01T06:36:31.959Z,1.85
2022-11-01T06:38:36.900Z,1.90
2022-11-01T06:40:39.123Z,1.60
2022-11-01T06:42:45.548Z,1.65
2022-11-01T06:44:49.158Z,2.17
2022-11-01T06:46:51.350Z,1.90
2022-11-01T06:48:53.896Z,1.85
2022-11-01T06:50:56.416Z,2.42
2022-11-01T06:53:00.836Z,2.03
2022-11-01T06:55:06.692Z,1.73
2022-11-01T06:57:08.982Z,1.80
2022-11-01T06:59:11.369Z,1.80
2022-11-01T07:01:13.755Z,1.80
2022-11-01T07:03:16.385Z,2.10
2022-11-01T07:05:18.607Z,1.70
2022-11-01T07:07:21.765Z,1.80
2022-11-01T07:09:24.284Z,1.88
2022-11-01T07:11:31.680Z,1.85
2022-11-01T07:13:37.156Z,1.70
2022-11-01T07:15:39.739Z,2.33
2022-11-01T07:17:42.439Z,1.83
2022-11-01T07:19:44.730Z,1.75
2022-11-01T07:21:46.975Z,2.13
2022-11-01T07:23:49.300Z,1.90
2022-11-01T07:25:52.062Z,1.77
2022-11-01T07:27:57.290Z,1.67
2022-11-01T07:30:00.289Z,1.90
2022-11-01T07:32:02.600Z,2.03
2022-11-01T07:34:05.562Z,1.77
2022-11-01T07:36:08.843Z,2.00
2022-11-01T07:38:12.938Z,2.13
2022-11-01T07:40:15.834Z,2.35
2022-11-01T07:42:18.073Z,1.88
2022-11-01T07:44:22.922Z,1.88
2022-11-01T07:46:25.259Z,3.28
2022-11-01T07:48:27.524Z,1.92
2022-11-01T07:50:30.115Z,2.35
2022-11-01T07:52:32.453Z,2.78
2022-11-01T07:54:34.618Z,2.55
2022-11-01T07:56:36.874Z,1.90
2022-11-01T07:58:43.345Z,2.05
2022-11-01T08:00:48.306Z,2.20
2022-11-01T08:02:50.860Z,2.13
2022-11-01T08:04:57.612Z,2.20
2022-11-01T08:06:59.856Z,2.10
2022-11-01T08:09:02.099Z,1.88
2022-11-01T08:11:04.602Z,2.70
2022-11-01T08:13:09.043Z,1.90
2022-11-01T08:15:11.758Z,2.20
2022-11-01T08:17:16.649Z,2.40
2022-11-01T08:19:18.885Z,2.55
2022-11-01T08:21:21.165Z,1.98
2022-11-01T08:23:23.489Z,2.53
2022-11-01T08:25:25.709Z,2.00
2022-11-01T08:27:32.937Z,2.42
2022-11-01T08:29:37.825Z,2.47
2022-11-01T08:31:41.472Z,2.13
2022-11-01T08:33:48.890Z,1.90
2022-11-01T08:35:51.105Z,2.28
2022-11-01T08:37:54.167Z,2.10
2022-11-01T08:39:56.487Z,2.22
2022-11-01T08:41:59.509Z,2.60
2022-11-01T08:44:01.729Z,2.28
2022-11-01T08:46:04.078Z,2.25
2022-11-01T08:48:06.752Z,2.67
2022-11-01T08:50:15.229Z,2.40
2022-11-01T08:52:17.472Z,2.25
2022-11-01T08:54:19.840Z,2.88
2022-11-01T08:56:24.576Z,2.03
2022-11-01T08:58:32.467Z,2.38
2022-11-01T09:00:35.268Z,2.72
2022-11-01T09:02:37.925Z,2.53
2022-11-01T09:04:40.163Z,2.72
2022-11-01T09:06:45.105Z,2.58
2022-11-01T09:08:47.392Z,3.03
2022-11-01T09:10:49.753Z,3.10
2022-11-01T09:12:52.062Z,3.05
2022-11-01T09:14:54.366Z,2.67
2022-11-01T09:16:56.852Z,2.35
2022-11-01T09:19:01.786Z,2.40
2022-11-01T09:21:04.987Z,2.45
2022-11-01T09:23:09.847Z,3.00
2022-11-01T09:25:12.648Z,2.25
2022-11-01T09:27:14.934Z,2.85
2022-11-01T09:29:19.002Z,2.63
2022-11-01T09:31:21.752Z,2.95
2022-11-01T09:33:25.162Z,3.42
2022-11-01T09:35:30.317Z,2.47
2022-11-01T09:37:32.739Z,1.90
2022-11-01T09:39:37.646Z,2.35
2022-11-01T09:41:47.326Z,2.92
2022-11-01T09:43:52.134Z,3.00
2022-11-01T09:45:59.187Z,2.92
2022-11-01T09:48:03.789Z,4.05
2022-11-01T09:50:16.526Z,2.35
2022-11-01T09:52:21.217Z,2.67
2022-11-01T09:54:26.426Z,2.60
2022-11-01T09:56:35.483Z,2.75
2022-11-01T09:58:49.256Z,2.22
2022-11-01T10:01:00.719Z,2.45
2022-11-01T10:03:33.674Z,3.92
2022-11-01T10:05:48.548Z,3.13
2022-11-01T10:07:58.309Z,2.65
2022-11-01T10:10:11.850Z,2.60
2022-11-01T10:12:31.932Z,3.15
2022-11-01T10:14:57.952Z,2.33
2022-11-01T10:17:12.092Z,2.00
2022-11-01T10:19:16.303Z,2.95
2022-11-01T10:21:23.528Z,2.40
2022-11-01T10:23:37.949Z,2.70
2022-11-01T10:25:46.483Z,2.17
2022-11-01T10:27:59.440Z,2.55
2022-11-01T10:30:04.748Z,2.67
2022-11-01T10:32:24.507Z,2.10
2022-11-01T10:34:35.945Z,3.00
2022-11-01T10:36:43.767Z,2.90
2022-11-01T10:41:20.130Z,2.70
2022-11-01T10:43:26.453Z,2.83
2022-11-01T10:45:29.113Z,2.63
2022-11-01T10:47:31.480Z,2.17
2022-11-01T10:50:04.310Z,2.97
2022-11-01T10:52:04.000Z,2.92
2022-11-01T10:54:11.035Z,2.35
2022-11-01T10:56:21.269Z,2.65
2022-11-01T10:58:34.565Z,2.75
2022-11-01T11:00:42.017Z,2.45
2022-11-01T11:02:47.673Z,2.55
2022-11-01T11:04:50.835Z,3.17
2022-11-01T11:06:53.373Z,2.63
2022-11-01T11:08:57.274Z,2.75
2022-11-01T11:11:04.114Z,3.13
2022-11-01T11:13:07.896Z,2.70
2022-11-01T11:15:19.297Z,2.40
2022-11-01T11:17:25.042Z,3.50
2022-11-01T11:19:33.503Z,3.47
2022-11-01T11:21:35.988Z,2.78
2022-11-01T11:23:42.401Z,3.53
2022-11-01T11:25:45.699Z,2.55
2022-11-01T11:27:49.761Z,2.43
2022-11-01T11:29:54.484Z,2.40
2022-11-01T11:32:00.702Z,3.10
2022-11-01T11:34:15.234Z,2.60
2022-11-01T11:36:26.438Z,2.50
2022-11-01T11:38:42.737Z,2.33
2022-11-01T11:40:48.431Z,2.63
2022-11-01T11:42:52.570Z,3.13
2022-11-01T11:47:03.225Z,2.97
2022-11-01T11:49:07.269Z,2.95
2022-11-01T11:51:10.944Z,2.25
2022-11-01T11:53:19.143Z,2.67
2022-11-01T11:55:28.153Z,2.25
2022-11-01T11:57:30.515Z,2.17
2022-11-01T11:59:33.872Z,2.10
2022-11-01T12:01:36.504Z,2.60
2022-11-01T12:03:49.258Z,2.80
2022-11-01T12:05:54.267Z,2.90
2022-11-01T12:07:58.140Z,3.30
2022-11-01T12:10:02.602Z,2.95
2022-11-01T12:12:15.157Z,3.00
2022-11-01T12:14:22.543Z,2.35
2022-11-01T12:16:25.302Z,3.63
2022-11-01T12:18:27.559Z,2.42
2022-11-01T12:20:37.636Z,2.30
2022-11-01T12:22:45.344Z,2.85
2022-11-01T12:24:53.939Z,2.63
2022-11-01T12:27:02.503Z,2.33
2022-11-01T12:29:17.950Z,2.17
2022-11-01T12:31:21.741Z,2.20
2022-11-01T12:33:27.923Z,2.65
2022-11-01T12:35:41.088Z,2.92
2022-11-01T12:37:51.897Z,2.47
2022-11-01T12:39:59.153Z,2.25
2022-11-01T12:42:04.533Z,2.35
2022-11-01T12:44:24.698Z,2.40
2022-11-01T12:46:35.053Z,2.60
2022-11-01T12:48:43.730Z,2.50
2022-11-01T12:50:52.469Z,2.60
2022-11-01T12:53:01.004Z,2.83
2022-11-01T12:55:16.577Z,2.88
2022-11-01T12:57:22.056Z,3.10
2022-11-01T12:59:27.682Z,2.60
2022-11-01T13:01:37.999Z,1.80
2022-11-01T13:03:49.716Z,2.45
2022-11-01T13:06:01.253Z,2.67
2022-11-01T13:08:13.338Z,2.53
2022-11-01T13:10:22.146Z,1.98
2022-11-01T13:12:35.442Z,2.33
2022-11-01T13:14:46.532Z,2.60
2022-11-01T13:16:57.986Z,2.45
2022-11-01T13:19:05.584Z,2.22
2022-11-01T13:21:15.534Z,2.53
2022-11-01T13:23:25.864Z,2.38
2022-11-01T13:25:36.413Z,2.50
2022-11-01T13:27:46.777Z,2.10
2022-11-01T13:29:55.868Z,2.08
2022-11-01T13:32:06.239Z,2.85
2022-11-01T13:34:34.406Z,2.15
2022-11-01T13:36:46.251Z,2.42
2022-11-01T13:38:58.207Z,2.30
2022-11-01T13:41:10.793Z,2.00
2022-11-01T13:43:16.714Z,1.80
2022-11-01T13:45:58.806Z,2.22
2022-11-01T13:48:14.572Z,2.30
2022-11-01T13:50:50.020Z,2.10
2022-11-01T13:55:08.184Z,1.90
2022-11-01T13:57:13.752Z,2.28
2022-11-01T13:59:30.978Z,1.70
2022-11-01T14:01:38.033Z,2.30
2022-11-01T14:03:40.290Z,1.98
2022-11-01T14:05:45.117Z,2.35
2022-11-01T14:08:17.158Z,2.10
2022-11-01T14:10:50.256Z,1.80
2022-11-01T14:13:14.333Z,1.92
2022-11-01T14:15:22.750Z,2.13
2022-11-01T14:18:03.252Z,2.00
2022-11-01T14:20:40.566Z,2.10
2022-11-01T14:22:45.023Z,2.20
2022-11-01T14:24:53.285Z,2.03
2022-11-01T14:27:20.617Z,1.80
2022-11-01T14:29:23.055Z,1.90
2022-11-01T14:31:27.455Z,2.25
2022-11-01T14:33:29.704Z,2.05
2022-11-01T14:35:40.038Z,1.65
2022-11-01T14:37:47.127Z,2.08
2022-11-01T14:40:00.959Z,2.03
2022-11-01T14:42:11.335Z,2.45
2022-11-01T14:44:20.619Z,2.03
2022-11-01T14:46:25.646Z,1.60
2022-11-01T14:48:38.767Z,2.08
2022-11-01T14:50:47.918Z,1.90
2022-11-01T14:52:56.636Z,2.35
2022-11-01T14:55:13.374Z,2.08
2022-11-01T14:57:25.942Z,2.45
2022-11-01T14:59:35.176Z,2.30
2022-11-01T15:01:43.988Z,1.80
2022-11-01T15:03:54.179Z,1.80
2022-11-01T15:05:57.304Z,2.55
2022-11-01T15:07:59.927Z,2.08
2022-11-01T15:10:06.536Z,1.98
2022-11-01T15:12:14.909Z,1.80
2022-11-01T15:14:30.789Z,2.08
2022-11-01T15:16:35.501Z,1.77
2022-11-01T15:18:43.620Z,2.30
2022-11-01T15:20:49.273Z,2.00
2022-11-01T15:22:55.171Z,2.63
2022-11-01T15:24:59.096Z,2.55
2022-11-01T15:27:06.012Z,1.90
2022-11-01T15:29:16.120Z,2.50
2022-11-01T15:31:21.370Z,2.17
2022-11-01T15:33:25.840Z,2.25
2022-11-01T15:35:28.346Z,2.40
2022-11-01T15:37:33.441Z,1.95
2022-11-01T15:39:37.874Z,2.10
2022-11-01T15:41:40.873Z,2.00
2022-11-01T15:43:51.343Z,1.98
2022-11-01T15:45:56.003Z,2.15
2022-11-01T15:48:12.681Z,2.35
2022-11-01T15:50:15.026Z,1.95
2022-11-01T15:52:20.107Z,2.45
2022-11-01T15:54:32.671Z,2.17
2022-11-01T15:56:42.637Z,1.95
2022-11-01T15:58:50.736Z,2.65
2022-11-01T16:00:57.220Z,1.80
2022-11-01T16:03:06.005Z,2.15
2022-11-01T16:05:11.080Z,2.13
2022-11-01T16:07:17.369Z,2.03
2022-11-01T16:09:32.593Z,1.77
2022-11-01T16:11:35.570Z,2.00
2022-11-01T16:13:38.031Z,2.22
2022-11-01T16:16:02.046Z,2.72
2022-11-01T16:18:23.964Z,2.40
2022-11-01T16:20:30.833Z,2.35
2022-11-01T16:22:36.741Z,2.65
2022-11-01T16:24:38.934Z,2.10
2022-11-01T16:26:54.530Z,1.70
2022-11-01T16:28:56.809Z,2.30
2022-11-01T16:30:59.467Z,2.10
2022-11-01T16:33:18.990Z,1.85
2022-11-01T16:35:30.689Z,2.60
2022-11-01T16:37:35.857Z,1.95
2022-11-01T16:39:39.305Z,1.90
2022-11-01T16:41:42.295Z,2.28
2022-11-01T16:43:45.118Z,1.90
2022-11-01T16:45:50.485Z,1.90
2022-11-01T16:47:57.982Z,2.20
2022-11-01T16:50:03.301Z,2.28
2022-11-01T16:52:10.551Z,2.28
2022-11-01T16:54:14.628Z,2.95
2022-11-01T16:56:38.253Z,1.63
2022-11-01T16:58:40.800Z,2.03
2022-11-01T17:00:50.814Z,2.00
2022-11-01T17:02:56.941Z,2.20
2022-11-01T17:05:16.712Z,1.80
2022-11-01T17:07:19.083Z,1.92
2022-11-01T17:09:25.265Z,1.92
2022-11-01T17:11:27.581Z,2.35
2022-11-01T17:13:29.845Z,2.00
2022-11-01T17:15:36.051Z,2.00
2022-11-01T17:17:38.866Z,2.03
2022-11-01T17:19:44.797Z,2.05
2022-11-01T17:21:50.436Z,2.05
2022-11-01T17:23:52.851Z,1.92
2022-11-01T17:25:56.212Z,2.45
2022-11-01T17:27:58.588Z,2.10
2022-11-01T17:30:00.945Z,1.90
2022-11-01T17:32:08.866Z,1.90
2022-11-01T17:34:11.013Z,1.95
2022-11-01T17:36:14.261Z,2.10
2022-11-01T17:38:27.735Z,2.10
2022-11-01T17:40:33.895Z,2.13
2022-11-01T17:42:36.963Z,1.90
2022-11-01T17:44:39.281Z,1.65
2022-11-01T17:46:42.871Z,2.38
2022-11-01T17:48:45.121Z,2.22
2022-11-01T17:50:48.076Z,1.80
2022-11-01T17:52:50.409Z,1.95
2022-11-01T17:54:55.151Z,2.10
2022-11-01T17:56:57.319Z,1.98
2022-11-01T17:58:59.577Z,2.20
2022-11-01T18:01:02.159Z,1.92
2022-11-01T18:03:04.904Z,1.90
2022-11-01T18:05:09.385Z,1.75
2022-11-01T18:07:12.672Z,2.20
2022-11-01T18:09:24.211Z,2.50
2022-11-01T18:11:51.079Z,2.00
2022-11-01T18:14:03.844Z,2.25
2022-11-01T18:16:10.364Z,2.65
2022-11-01T18:18:35.434Z,2.00
2022-11-01T18:20:46.014Z,1.77
2022-11-01T18:22:53.196Z,2.08
2022-11-01T18:25:00.925Z,2.30
2022-11-01T18:27:09.224Z,2.58
2022-11-01T18:29:16.679Z,2.10
2022-11-01T18:31:23.691Z,1.83
2022-11-01T18:33:34.387Z,2.55
2022-11-01T18:35:41.932Z,1.90
2022-11-01T18:37:49.419Z,2.15
2022-11-01T18:40:00.385Z,2.10
2022-11-01T18:42:05.636Z,2.03
2022-11-01T18:44:14.556Z,2.10
2022-11-01T18:46:24.928Z,2.08
2022-11-01T18:48:29.306Z,2.42
2022-11-01T18:50:31.803Z,2.10
2022-11-01T18:52:34.225Z,1.90
2022-11-01T18:54:43.520Z,2.10
2022-11-01T18:56:51.114Z,1.90
2022-11-01T18:58:55.339Z,1.63
2022-11-01T19:03:13.713Z,2.10
2022-11-01T19:05:21.922Z,2.13
2022-11-01T19:07:35.352Z,2.03
2022-11-01T19:09:53.159Z,2.10
2022-11-01T19:12:00.336Z,2.47
2022-11-01T19:14:03.518Z,2.00
2022-11-01T19:16:11.536Z,2.55
2022-11-01T19:18:19.130Z,2.08
2022-11-01T19:20:24.103Z,1.77
2022-11-01T19:22:36.789Z,2.17
2022-11-01T19:24:40.041Z,2.00
2022-11-01T19:26:43.379Z,2.30
2022-11-01T19:28:45.619Z,2.20
2022-11-01T19:30:50.732Z,2.17
2022-11-01T19:33:00.702Z,2.72
2022-11-01T19:35:03.103Z,1.85
2022-11-01T19:37:19.457Z,1.92
2022-11-01T19:39:24.911Z,2.80
2022-11-01T19:41:33.192Z,2.83
2022-11-01T19:43:35.653Z,2.33
2022-11-01T19:45:44.069Z,2.20
2022-11-01T19:47:50.111Z,2.65
2022-11-01T19:49:55.145Z,2.05
2022-11-01T19:52:21.023Z,1.95
2022-11-01T19:54:23.222Z,2.13
2022-11-01T19:56:30.974Z,2.15
2022-11-01T19:58:44.166Z,2.05
2022-11-01T20:00:46.461Z,2.25
2022-11-01T20:02:50.195Z,1.98
2022-11-01T20:04:59.602Z,2.03
2022-11-01T20:07:10.899Z,1.92
2022-11-01T20:09:21.940Z,3.00
2022-11-01T20:11:26.034Z,2.35
2022-11-01T20:13:28.292Z,2.30
2022-11-01T20:15:30.992Z,2.17
2022-11-01T20:17:33.917Z,2.00
2022-11-01T20:19:36.302Z,2.20
2022-11-01T20:21:41.102Z,1.90
2022-11-01T20:23:43.315Z,2.35
2022-11-01T20:25:45.768Z,2.90
2022-11-01T20:27:48.048Z,2.20
2022-11-01T20:29:50.413Z,2.60
2022-11-01T20:31:52.583Z,2.08
2022-11-01T20:33:54.921Z,2.70
2022-11-01T20:35:57.930Z,2.40
2022-11-01T20:38:02.823Z,1.92
2022-11-01T20:40:06.695Z,2.28
2022-11-01T20:42:09.521Z,2.28
2022-11-01T20:44:11.825Z,2.78
2022-11-01T20:46:17.995Z,2.08
2022-11-01T20:48:20.279Z,2.28
2022-11-01T20:50:22.559Z,2.20
2022-11-01T20:52:39.031Z,2.88
2022-11-01T20:54:44.792Z,2.08
2022-11-01T20:56:48.600Z,2.00
2022-11-01T20:58:50.961Z,3.33
2022-11-01T21:00:53.270Z,2.35
2022-11-01T21:02:57.473Z,1.92
2022-11-01T21:07:09.341Z,2.40
2022-11-01T21:09:27.211Z,2.63
2022-11-01T21:11:44.895Z,2.00
2022-11-01T21:13:47.156Z,3.08
2022-11-01T21:15:50.068Z,2.20
2022-11-01T21:17:52.603Z,2.20
2022-11-01T21:19:54.946Z,2.60
2022-11-01T21:21:58.990Z,2.30
2022-11-01T21:24:32.453Z,2.30
2022-11-01T21:26:40.083Z,2.15
2022-11-01T21:28:45.472Z,1.77
2022-11-01T21:30:47.773Z,2.30
2022-11-01T21:32:51.690Z,2.22
2022-11-01T21:34:54.869Z,2.42
2022-11-01T21:37:01.207Z,2.15
2022-11-01T21:39:10.164Z,2.53
2022-11-01T21:41:40.137Z,2.30
2022-11-01T21:43:43.962Z,1.90
2022-11-01T21:45:46.645Z,1.95
2022-11-01T21:47:51.431Z,2.22
2022-11-01T21:49:53.776Z,2.55
2022-11-01T21:51:59.044Z,2.00
2022-11-01T21:54:04.355Z,2.33
2022-11-01T21:56:09.016Z,2.20
2022-11-01T22:00:16.429Z,2.40
2022-11-01T22:02:19.006Z,2.20
2022-11-01T22:04:24.732Z,2.05
2022-11-01T22:06:28.467Z,2.25
2022-11-01T22:08:30.715Z,2.47
2022-11-01T22:10:33.438Z,2.97
2022-11-01T22:12:35.773Z,2.75
2022-11-01T22:14:40.727Z,2.20
2022-11-01T22:16:43.202Z,2.53
2022-11-01T22:18:45.491Z,2.65
2022-11-01T22:20:47.841Z,2.53
2022-11-01T22:22:50.087Z,1.90
2022-11-01T22:24:52.474Z,2.33
2022-11-01T22:26:54.753Z,2.10
2022-11-01T22:28:57.121Z,2.75
2022-11-01T22:31:02.022Z,2.17
2022-11-01T22:33:06.230Z,2.47
2022-11-01T22:35:11.687Z,2.42
2022-11-01T22:37:14.155Z,2.13
2022-11-01T22:39:21.219Z,1.98
2022-11-01T22:41:31.608Z,2.70
2022-11-01T22:43:37.511Z,1.80
2022-11-01T22:47:46.551Z,2.08
2022-11-01T22:49:53.582Z,2.45
2022-11-01T22:51:57.961Z,2.30
2022-11-01T22:54:00.455Z,2.15
2022-11-01T22:56:02.732Z,2.22
2022-11-01T22:58:25.778Z,2.00
2022-11-01T23:00:31.502Z,2.13
2022-11-01T23:02:37.580Z,2.25
2022-11-01T23:04:42.583Z,1.75
2022-11-01T23:06:45.085Z,2.63
2022-11-01T23:08:48.082Z,2.08
2022-11-01T23:10:54.436Z,1.70
2022-11-01T23:13:19.598Z,2.95
2022-11-01T23:15:27.303Z,2.40
2022-11-01T23:17:34.756Z,2.40
2022-11-01T23:19:40.228Z,2.15
2022-11-01T23:21:45.048Z,2.20
2022-11-01T23:23:48.390Z,1.98
2022-11-01T23:25:56.383Z,2.37
2022-11-01T23:27:59.389Z,2.17
2022-11-01T23:30:02.653Z,2.00
2022-11-01T23:32:05.262Z,2.55
2022-11-01T23:34:10.648Z,2.30
2022-11-01T23:36:17.864Z,2.20
2022-11-01T23:38:30.647Z,2.17
2022-11-01T23:40:36.011Z,2.33
2022-11-01T23:42:39.703Z,1.90
2022-11-01T23:44:42.489Z,1.88
2022-11-01T23:46:44.794Z,2.25
2022-11-01T23:48:47.422Z,2.25
2022-11-01T23:50:52.866Z,2.17
2022-11-01T23:52:57.944Z,2.80
2022-11-01T23:55:03.458Z,1.92
2022-11-01T23:57:06.011Z,2.50
2022-11-01T23:59:08.210Z,1.80
